createdAt,value
2024-02-19T00:03:21.267Z,1.87
2024-02-19T00:08:25.084Z,1.89
2024-02-19T00:13:29.443Z,1.90
2024-02-19T00:18:33.276Z,1.92
2024-02-19T00:23:37.629Z,1.93
2024-02-19T00:28:41.555Z,1.94
2024-02-19T00:33:45.472Z,1.96
2024-02-19T00:38:49.493Z,1.97
2024-02-19T00:43:53.176Z,2.00
2024-02-19T00:48:57.185Z,2.01
2024-02-19T00:54:01.206Z,2.02
2024-02-19T00:59:04.974Z,2.03
2024-02-19T01:04:08.923Z,2.02
2024-02-19T01:09:12.976Z,2.03
2024-02-19T01:14:16.775Z,2.04
2024-02-19T01:19:20.667Z,2.02
2024-02-19T01:24:25.206Z,2.02
2024-02-19T01:29:29.025Z,2.03
2024-02-19T01:34:32.961Z,2.04
2024-02-19T01:39:36.877Z,2.03
2024-02-19T01:44:41.127Z,2.03
2024-02-19T01:49:45.463Z,2.04
2024-02-19T01:54:50.019Z,2.03
2024-02-19T01:59:55.228Z,2.02
2024-02-19T02:04:59.086Z,2.01
2024-02-19T02:10:06.086Z,2.00
2024-02-19T02:15:10.905Z,2.01
2024-02-19T02:20:15.125Z,2.01
2024-02-19T02:25:19.303Z,2.01
2024-02-19T02:30:23.399Z,2.01
2024-02-19T02:35:27.130Z,2.01
2024-02-19T02:40:31.701Z,2.02
2024-02-19T02:45:35.578Z,2.03
2024-02-19T02:50:39.308Z,2.04
2024-02-19T02:55:43.208Z,2.06
2024-02-19T03:00:47.179Z,2.05
2024-02-19T03:05:50.983Z,2.03
2024-02-19T03:10:54.974Z,2.00
2024-02-19T03:16:19.164Z,2.00
2024-02-19T03:21:23.044Z,2.00
2024-02-19T03:26:37.555Z,1.98
2024-02-19T03:31:44.973Z,1.96
2024-02-19T03:36:50.853Z,1.97
2024-02-19T03:41:54.912Z,1.94
2024-02-19T03:47:02.283Z,1.93
2024-02-19T03:52:07.668Z,1.93
2024-02-19T03:57:11.611Z,1.91
2024-02-19T04:02:15.275Z,1.90
2024-02-19T04:07:19.213Z,1.89
2024-02-19T04:12:23.131Z,1.90
2024-02-19T04:17:27.111Z,1.88
2024-02-19T04:22:30.955Z,1.86
2024-02-19T04:27:34.702Z,1.85
2024-02-19T04:32:38.637Z,1.84
2024-02-19T04:37:42.429Z,1.82
2024-02-19T04:42:46.125Z,1.79
2024-02-19T04:47:50.014Z,1.75
2024-02-19T04:52:53.839Z,1.72
2024-02-19T04:57:57.721Z,1.70
2024-02-19T05:03:01.506Z,1.65
2024-02-19T05:08:06.437Z,1.62
2024-02-19T05:13:10.392Z,1.57
2024-02-19T05:18:14.369Z,1.50
2024-02-19T05:23:18.398Z,1.45
2024-02-19T05:28:22.349Z,1.40
2024-02-19T05:33:26.096Z,1.36
2024-02-19T05:38:29.853Z,1.31
2024-02-19T05:43:33.673Z,1.26
2024-02-19T05:48:37.696Z,1.24
2024-02-19T05:53:41.688Z,1.22
2024-02-19T05:58:46.875Z,1.20
2024-02-19T06:03:50.592Z,1.19
2024-02-19T06:08:54.384Z,1.20
2024-02-19T06:13:58.322Z,1.21
2024-02-19T06:19:03.419Z,1.20
2024-02-19T06:24:07.932Z,1.20
2024-02-19T06:29:13.687Z,1.20
2024-02-19T06:34:17.626Z,1.21
2024-02-19T06:39:22.164Z,1.23
2024-02-19T06:44:26.286Z,1.25
2024-02-19T06:49:32.080Z,1.27
2024-02-19T06:54:37.258Z,1.29
2024-02-19T06:59:42.560Z,1.33
2024-02-19T07:04:47.179Z,1.35
2024-02-19T07:09:51.985Z,1.38
2024-02-19T07:14:56.240Z,1.40
2024-02-19T07:20:03.666Z,1.42
2024-02-19T07:25:16.593Z,1.41
2024-02-19T07:30:24.641Z,1.40
2024-02-19T07:35:40.376Z,1.39
2024-02-19T07:41:00.704Z,1.40
2024-02-19T07:46:05.778Z,1.45
2024-02-19T07:51:16.712Z,1.48
2024-02-19T07:56:21.185Z,1.51
2024-02-19T08:01:25.599Z,1.52
2024-02-19T08:06:30.136Z,1.53
2024-02-19T08:11:34.556Z,1.55
2024-02-19T08:16:40.343Z,1.56
2024-02-19T08:21:45.834Z,1.59
2024-02-19T08:26:50.444Z,1.62
2024-02-19T08:31:57.397Z,1.64
2024-02-19T08:37:01.681Z,1.66
2024-02-19T08:42:06.755Z,1.68
2024-02-19T08:47:11.773Z,1.70
2024-02-19T08:52:18.801Z,1.73
2024-02-19T08:57:26.625Z,1.78
2024-02-19T09:02:33.352Z,1.82
2024-02-19T09:07:37.774Z,1.86
2024-02-19T09:12:42.214Z,1.90
2024-02-19T09:17:46.520Z,1.94
2024-02-19T09:22:50.698Z,1.98
2024-02-19T09:27:54.991Z,2.03
2024-02-19T09:32:59.075Z,2.08
2024-02-19T09:38:03.405Z,2.13
2024-02-19T09:43:07.775Z,2.17
2024-02-19T09:48:13.638Z,2.24
2024-02-19T09:53:21.837Z,2.32
2024-02-19T09:58:27.768Z,2.38
2024-02-19T10:03:32.286Z,2.45
2024-02-19T10:08:36.855Z,2.53
2024-02-19T10:13:43.149Z,2.61
2024-02-19T10:18:47.430Z,2.69
2024-02-19T10:23:51.738Z,2.75
2024-02-19T10:28:58.274Z,2.81
2024-02-19T10:34:07.411Z,2.87
2024-02-19T10:39:11.461Z,2.94
2024-02-19T10:44:17.738Z,3.02
2024-02-19T10:49:22.223Z,3.09
2024-02-19T10:54:30.885Z,3.15
2024-02-19T10:59:39.598Z,3.22
2024-02-19T11:04:43.909Z,3.28
2024-02-19T11:09:58.603Z,3.34
2024-02-19T11:15:12.913Z,3.42
2024-02-19T11:20:26.142Z,3.46
2024-02-19T11:25:30.282Z,3.51
2024-02-19T11:30:34.406Z,3.56
2024-02-19T11:35:38.560Z,3.62
2024-02-19T11:40:43.053Z,3.68
2024-02-19T11:45:47.830Z,3.75
2024-02-19T11:50:58.699Z,3.83
2024-02-19T11:56:04.586Z,3.89
2024-02-19T12:01:10.043Z,3.98
2024-02-19T12:06:14.955Z,4.05
2024-02-19T12:11:19.157Z,4.12
2024-02-19T12:16:26.336Z,4.18
2024-02-19T12:21:30.966Z,4.26
2024-02-19T12:26:37.804Z,4.34
2024-02-19T12:31:44.760Z,4.38
2024-02-19T12:36:49.473Z,4.46
2024-02-19T12:41:53.981Z,4.58
2024-02-19T12:46:57.980Z,4.66
2024-02-19T12:52:03.800Z,4.75
2024-02-19T12:57:10.354Z,4.79
2024-02-19T13:02:16.988Z,4.84
2024-02-19T13:07:21.611Z,4.91
2024-02-19T13:12:26.374Z,5.01
2024-02-19T13:17:39.703Z,5.13
2024-02-19T13:22:54.488Z,5.29
2024-02-19T13:27:59.111Z,5.45
2024-02-19T13:33:07.204Z,5.60
2024-02-19T13:38:12.623Z,5.73
2024-02-19T13:43:17.181Z,5.86
2024-02-19T13:48:24.889Z,5.96
2024-02-19T13:53:30.383Z,6.03
2024-02-19T13:58:35.294Z,6.11
2024-02-19T14:03:39.603Z,6.17
2024-02-19T14:08:44.367Z,6.21
2024-02-19T14:13:58.026Z,6.22
2024-02-19T14:19:06.086Z,6.24
2024-02-19T14:24:10.034Z,6.27
2024-02-19T14:29:14.009Z,6.29
2024-02-19T14:34:18.095Z,6.32
2024-02-19T14:39:22.966Z,6.33
2024-02-19T14:44:26.980Z,6.32
2024-02-19T14:49:31.649Z,6.33
2024-02-19T14:54:38.772Z,6.32
2024-02-19T14:59:42.940Z,6.32
2024-02-19T15:04:47.155Z,6.32
2024-02-19T15:09:51.017Z,6.31
2024-02-19T15:14:55.273Z,6.27
2024-02-19T15:19:59.305Z,6.22
2024-02-19T15:25:05.654Z,6.13
2024-02-19T15:30:13.311Z,6.04
2024-02-19T15:35:18.558Z,5.95
2024-02-19T15:40:24.460Z,5.89
2024-02-19T15:45:29.247Z,5.85
2024-02-19T15:50:39.624Z,5.79
2024-02-19T15:55:44.951Z,5.73
2024-02-19T16:01:07.861Z,5.65
2024-02-19T16:06:13.722Z,5.59
2024-02-19T16:11:23.915Z,5.55
2024-02-19T16:16:31.172Z,5.53
2024-02-19T16:21:35.664Z,5.48
2024-02-19T16:26:39.839Z,5.42
2024-02-19T16:31:43.821Z,5.33
2024-02-19T16:36:47.841Z,5.25
2024-02-19T16:41:51.921Z,5.20
2024-02-19T16:47:04.132Z,5.17
2024-02-19T16:52:08.990Z,5.13
2024-02-19T16:57:22.292Z,5.10
2024-02-19T17:02:28.772Z,5.03
2024-02-19T17:07:33.402Z,5.00
2024-02-19T17:12:37.671Z,4.95
2024-02-19T17:17:42.052Z,4.91
2024-02-19T17:22:47.269Z,4.84
2024-02-19T17:27:51.561Z,4.78
2024-02-19T17:32:56.133Z,4.73
2024-02-19T17:38:00.164Z,4.73
2024-02-19T17:43:05.238Z,4.72
2024-02-19T17:48:13.876Z,4.69
2024-02-19T17:53:18.703Z,4.66
2024-02-19T17:58:22.833Z,4.65
2024-02-19T18:03:28.826Z,4.64
2024-02-19T18:08:33.718Z,4.63
2024-02-19T18:13:37.775Z,4.63
2024-02-19T18:18:43.526Z,4.63
2024-02-19T18:23:49.211Z,4.62
2024-02-19T18:28:56.732Z,4.61
2024-02-19T18:34:01.383Z,4.59
2024-02-19T18:39:07.183Z,4.55
2024-02-19T18:44:11.302Z,4.52
2024-02-19T18:49:16.826Z,4.49
2024-02-19T18:54:27.705Z,4.50
2024-02-19T18:59:43.548Z,4.50
2024-02-19T19:04:49.051Z,4.49
2024-02-19T19:09:53.573Z,4.46
2024-02-19T19:14:59.259Z,4.41
2024-02-19T19:20:09.759Z,4.36
2024-02-19T19:25:14.933Z,4.32
2024-02-19T19:30:19.104Z,4.32
2024-02-19T19:35:24.599Z,4.34
2024-02-19T19:40:28.722Z,4.36
2024-02-19T19:45:33.073Z,4.35
2024-02-19T19:50:38.384Z,4.37
2024-02-19T19:55:42.616Z,4.37
2024-02-19T20:00:47.529Z,4.32
2024-02-19T20:05:51.676Z,4.33
2024-02-19T20:10:59.418Z,4.34
2024-02-19T20:16:04.023Z,4.34
2024-02-19T20:21:10.963Z,4.37
2024-02-19T20:26:18.681Z,4.39
2024-02-19T20:31:22.802Z,4.42
2024-02-19T20:36:26.768Z,4.45
2024-02-19T20:41:34.166Z,4.47
2024-02-19T20:46:38.413Z,4.48
2024-02-19T20:51:47.137Z,4.51
2024-02-19T21:02:55.473Z,4.55
2024-02-19T21:08:00.878Z,4.59
2024-02-19T21:13:06.339Z,4.62
2024-02-19T21:18:12.904Z,4.67
2024-02-19T21:23:17.009Z,4.71
2024-02-19T21:28:21.375Z,4.75
2024-02-19T21:33:26.182Z,4.80
2024-02-19T21:38:30.298Z,4.84
2024-02-19T21:43:34.506Z,4.87
2024-02-19T21:48:41.475Z,4.89
2024-02-19T21:53:45.875Z,4.91
2024-02-19T21:58:51.468Z,4.94
2024-02-19T22:03:57.065Z,4.99
2024-02-19T22:09:02.008Z,5.03
2024-02-19T22:14:07.807Z,5.08
2024-02-19T22:19:18.171Z,5.11
2024-02-19T22:24:26.197Z,5.14
2024-02-19T22:29:33.313Z,5.19
2024-02-19T22:34:41.338Z,5.24
2024-02-19T22:39:48.851Z,5.28
2024-02-19T22:44:54.997Z,5.31
2024-02-19T22:50:02.366Z,5.34
2024-02-19T22:55:39.533Z,5.38
2024-02-19T23:00:54.053Z,5.40
2024-02-19T23:05:58.566Z,5.44
2024-02-19T23:11:03.094Z,5.49
2024-02-19T23:16:08.524Z,5.55
2024-02-19T23:21:16.761Z,5.57
2024-02-19T23:26:21.077Z,5.55
2024-02-19T23:31:27.165Z,5.53
2024-02-19T23:36:37.676Z,5.54
2024-02-19T23:41:41.819Z,5.59
2024-02-19T23:46:45.672Z,5.63
2024-02-19T23:51:50.169Z,5.67
2024-02-19T23:57:02.288Z,5.67
